Time;durP1;ratioP1;P1;durP2;ratioP2;P2;SDS_P1;SDS_P2;PMS_P1;PMS_P2;Temp;Humidity;BMP_temperature;BMP_pressure;BME280_temperature;BME280_humidity;BME280_pressure;Samples;Min_cycle;Max_cycle;Signal;HPM_P1;HPM_P2
2023/03/11 01:10:34;;;;;;;2.60;2.40;;;;;;;7.08;48.45;97753.22;6627154;29;20318;-88
2023/03/11 01:13:56;;;;;;;3.30;3.00;;;;;;;6.54;48.10;97634.84;6765779;29;20202;-90
2023/03/11 01:17:20;;;;;;;3.33;2.90;;;;;;;7.53;47.55;97721.97;6849913;29;20210;-86
2023/03/11 01:20:43;;;;;;;2.70;2.50;;;;;;;7.41;47.30;97719.13;6849265;29;20700;-87
2023/03/11 01:24:14;;;;;;;5.43;2.53;;;;;;;7.48;47.33;97713.75;6884091;28;20206;-86
2023/03/11 01:27:38;;;;;;;2.90;2.70;;;;;;;7.25;46.91;97730.31;6956904;28;20291;-86
2023/03/11 01:31:03;;;;;;;2.80;2.60;;;;;;;7.24;46.76;97739.38;6956703;28;20240;-86
2023/03/11 01:34:27;;;;;;;3.30;2.87;;;;;;;7.36;47.36;97737.72;6956607;28;20210;-86
2023/03/11 01:37:49;;;;;;;2.73;2.53;;;;;;;7.07;47.81;97740.06;6958798;28;20220;-87
2023/03/11 01:41:12;;;;;;;2.90;2.70;;;;;;;6.76;48.11;97729.16;6956684;28;20226;-86
2023/03/11 01:44:35;;;;;;;5.00;2.77;;;;;;;7.08;47.90;97777.34;7034259;28;20227;-89
2023/03/11 01:47:57;;;;;;;2.90;2.70;;;;;;;7.17;47.57;97772.59;7042921;28;20209;-89
2023/03/11 01:52:13;;;;;;;;;;;;;;;;;;;;;
2023/03/11 01:55:41;;;;;;;3.10;2.90;;;;;;;6.31;48.73;97733.47;7030886;28;20216;-86
2023/03/11 01:59:02;;;;;;;5.07;2.90;;;;;;;6.63;48.71;97746.06;7048161;28;20207;-90
2023/03/11 02:02:30;;;;;;;5.17;2.80;;;;;;;6.60;48.59;97738.44;7047856;28;20227;-86
2023/03/11 02:05:53;;;;;;;2.97;2.60;;;;;;;6.34;48.73;97697.44;7048492;28;20232;-88
2023/03/11 02:09:14;;;;;;;2.73;2.53;;;;;;;6.31;48.94;97719.28;7050390;28;20225;-87
2023/03/11 02:12:37;;;;;;;3.37;2.40;;;;;;;6.53;48.75;97740.28;7050730;28;20229;-88
2023/03/11 02:15:59;;;;;;;2.63;2.47;;;;;;;6.56;48.75;97758.63;7049675;28;20209;-87
2023/03/11 02:19:33;;;;;;;2.80;2.67;;;;;;;6.76;48.46;97775.53;7047094;28;20205;-87
2023/03/11 02:22:56;;;;;;;2.40;2.30;;;;;;;6.48;48.99;97755.34;7046216;28;20258;-86
2023/03/11 02:26:21;;;;;;;2.97;2.70;;;;;;;6.81;48.55;97766.84;7045214;28;20211;-87
2023/03/11 02:29:48;;;;;;;3.00;2.80;;;;;;;6.89;48.20;97774.72;7045647;28;20228;-87
2023/03/11 02:33:16;;;;;;;3.80;2.60;;;;;;;6.74;48.12;97792.81;7046365;28;20404;-87
2023/03/11 02:36:39;;;;;;;2.60;2.40;;;;;;;6.60;48.25;97800.03;7047667;28;20211;-87
2023/03/11 02:40:29;;;;;;;2.70;2.50;;;;;;;6.83;47.46;97791.59;7048275;28;20235;-87
2023/03/11 02:43:51;;;;;;;3.20;2.90;;;;;;;7.01;46.74;97800.66;7048788;28;20196;-87
2023/03/11 02:47:14;;;;;;;4.27;2.80;;;;;;;7.11;46.87;97758.19;7046118;28;20205;-86
2023/03/11 02:50:37;;;;;;;2.93;2.73;;;;;;;6.83;46.78;97794.28;7046226;28;20242;-87
2023/03/11 02:54:03;;;;;;;3.97;3.20;;;;;;;6.50;47.34;97788.06;7048140;28;20208;-88
2023/03/11 02:57:25;;;;;;;3.87;2.67;;;;;;;6.34;47.91;97796.47;7047818;28;20204;-86
2023/03/11 03:00:47;;;;;;;3.43;2.67;;;;;;;6.17;47.85;97731.81;7050061;28;20640;-87
2023/03/11 03:04:10;;;;;;;2.83;2.63;;;;;;;6.62;47.33;97808.69;7052172;28;20211;-86
2023/03/11 03:11:14;;;;;;;3.13;2.83;;;;;;;6.42;47.54;97812.38;7051186;28;20856;-89
2023/03/11 03:14:35;;;;;;;3.80;2.87;;;;;;;6.70;46.93;97816.53;7077104;28;20207;-86
2023/03/11 03:18:12;;;;;;;3.13;2.50;;;;;;;6.47;47.12;97833.97;7079183;28;20216;-87
2023/03/11 03:21:38;;;;;;;5.60;2.60;;;;;;;6.43;46.94;97822.03;7077879;28;20226;-87
2023/03/11 03:25:00;;;;;;;2.60;2.33;;;;;;;6.51;47.18;97848.63;7077024;28;20221;-86
2023/03/11 03:28:47;;;;;;;3.07;2.70;;;;;;;6.60;46.30;97840.19;7071227;28;20207;-86
2023/03/11 03:32:08;;;;;;;3.13;2.90;;;;;;;6.22;46.83;97824.88;7063056;28;20262;-86
2023/03/11 03:35:34;;;;;;;2.70;2.47;;;;;;;6.14;46.81;97800.97;7078040;28;20206;-86
2023/03/11 03:39:00;;;;;;;3.83;2.57;;;;;;;6.50;46.30;97845.13;7076513;28;20207;-86
2023/03/11 03:46:38;;;;;;;2.40;2.20;;;;;;;6.55;45.35;97850.69;7075579;28;20206;-88
2023/03/11 03:50:00;;;;;;;3.23;2.93;;;;;;;6.67;44.95;97848.25;7076058;28;20238;-86
2023/03/11 03:53:22;;;;;;;3.57;2.50;;;;;;;6.57;45.27;97863.88;7077542;28;20213;-86
2023/03/11 03:57:03;;;;;;;2.67;2.43;;;;;;;5.54;45.69;97772.31;7075540;28;20589;-85
2023/03/11 04:00:26;;;;;;;3.73;2.83;;;;;;;5.79;45.62;97794.03;7074864;28;20259;-86
2023/03/11 04:03:48;;;;;;;4.53;2.60;;;;;;;6.39;45.28;97874.31;7075700;28;20206;-86
2023/03/11 04:16:23;;;;;;;4.27;2.40;;;;;;;6.14;45.87;97871.34;6928751;28;20222;-86
2023/03/11 04:19:45;;;;;;;7.10;2.27;;;;;;;6.30;45.43;97884.38;6982009;28;20212;-86
2023/03/11 04:23:30;;;;;;;2.37;2.27;;;;;;;5.97;46.21;97896.81;7076990;28;20237;-89
2023/03/11 04:26:52;;;;;;;3.80;2.30;;;;;;;6.36;45.67;97891.63;7060104;28;20268;-86
2023/03/11 04:30:14;;;;;;;3.07;2.17;;;;;;;6.04;46.07;97891.47;7075167;28;20226;-86
2023/03/11 04:33:37;;;;;;;4.33;2.43;;;;;;;6.04;46.38;97886.97;7075696;28;20216;-86
2023/03/11 04:37:04;;;;;;;3.40;2.63;;;;;;;6.10;45.53;97835.34;7073683;28;20206;-85
2023/03/11 04:40:27;;;;;;;4.33;2.63;;;;;;;5.86;45.68;97816.28;7075980;28;20236;-85
2023/03/11 04:43:49;;;;;;;2.40;2.20;;;;;;;6.13;46.55;97896.47;7077127;28;20559;-87
2023/03/11 04:47:11;;;;;;;3.17;2.70;;;;;;;6.16;46.12;97884.53;7076212;28;20495;-87
2023/03/11 04:50:56;;;;;;;4.57;2.33;;;;;;;6.19;46.31;97879.59;7074267;28;20226;-86
2023/03/11 04:54:27;;;;;;;3.40;2.70;;;;;;;6.44;45.55;97845.09;7074804;28;20220;-85
2023/03/11 04:58:00;;;;;;;3.30;2.37;;;;;;;6.07;46.16;97864.34;7072644;28;20211;-86
2023/03/11 05:04:57;;;;;;;2.77;2.57;;;;;;;6.23;46.69;97890.72;7020336;28;20300;-85
2023/03/11 05:08:34;;;;;;;5.33;2.77;;;;;;;6.30;46.44;97903.13;7048334;28;20829;-86
2023/03/11 05:20:35;;;;;;;4.00;2.70;;;;;;;5.78;47.44;97894.81;7010316;28;20251;-84
2023/03/11 05:24:45;;;;;;;2.77;2.50;;;;;;;5.69;48.06;97900.50;7022253;28;20207;-86
2023/03/11 05:37:28;;;;;;;3.10;2.80;;;;;;;5.96;47.67;97907.72;7006565;28;20192;-87
2023/03/11 05:41:20;;;;;;;3.77;3.40;;;;;;;5.77;47.48;97897.69;6863306;28;20230;-86
2023/03/11 05:45:06;;;;;;;4.60;2.60;;;;;;;5.95;47.51;97924.78;6936770;28;20704;-86
2023/03/11 05:48:31;;;;;;;4.83;2.60;;;;;;;5.84;47.38;97920.78;6937920;28;20214;-86
2023/03/11 05:51:53;;;;;;;4.23;2.87;;;;;;;5.85;47.47;97930.47;6996433;28;20243;-85
2023/03/11 05:55:15;;;;;;;4.23;2.50;;;;;;;5.75;47.58;97926.47;7043638;28;20272;-87
2023/03/11 06:02:40;;;;;;;6.03;2.80;;;;;;;5.71;47.81;97917.22;6901440;28;20215;-85
2023/03/11 06:06:02;;;;;;;4.37;3.13;;;;;;;5.81;47.91;97937.25;6901540;28;20796;-87
2023/03/11 06:09:23;;;;;;;2.73;2.53;;;;;;;5.25;49.04;97951.59;6900126;28;20223;-86
2023/03/11 06:12:46;;;;;;;4.97;3.77;;;;;;;5.65;48.70;97942.06;6902813;28;20278;-87
2023/03/11 06:16:09;;;;;;;3.23;2.93;;;;;;;5.49;49.06;97959.19;6905126;28;20218;-87
2023/03/11 06:19:31;;;;;;;2.93;2.60;;;;;;;5.68;47.69;97906.88;6901150;28;20217;-87
2023/03/11 06:23:00;;;;;;;4.90;3.83;;;;;;;5.92;47.88;97936.72;6903387;28;20225;-86
2023/03/11 06:30:24;;;;;;;5.47;3.33;;;;;;;5.99;47.93;97963.47;6886038;28;20253;-86
2023/03/11 06:33:48;;;;;;;6.17;3.53;;;;;;;6.45;47.29;97952.00;6902405;28;20211;-85
2023/03/11 06:37:10;;;;;;;3.87;3.00;;;;;;;6.27;46.85;97942.84;6902666;28;20214;-84
2023/03/11 06:40:31;;;;;;;8.07;3.53;;;;;;;6.77;46.43;97961.19;7035589;28;20965;-86
2023/03/11 06:43:53;;;;;;;5.60;3.10;;;;;;;6.47;46.00;97914.28;7069569;28;20558;-87
2023/03/11 06:47:14;;;;;;;7.80;6.80;;;;;;;6.72;46.26;97936.84;7071147;28;20761;-86
2023/03/11 06:50:37;;;;;;;4.27;2.80;;;;;;;6.74;46.37;97985.69;7068247;28;20224;-86
2023/03/11 06:53:59;;;;;;;4.90;3.03;;;;;;;6.81;46.39;97994.56;7066992;28;20211;-86
2023/03/11 06:57:20;;;;;;;6.90;3.17;;;;;;;6.55;45.91;97971.19;7069135;28;20273;-83
2023/03/11 07:00:42;;;;;;;4.00;2.47;;;;;;;7.02;46.05;98005.94;7065654;28;20728;-83
2023/03/11 07:04:04;;;;;;;3.83;2.87;;;;;;;6.71;45.45;98004.84;7068741;28;20658;-83
2023/03/11 07:07:27;;;;;;;3.40;2.50;;;;;;;6.83;45.59;98019.31;7051221;28;20286;-85
2023/03/11 07:11:00;;;;;;;4.70;3.70;;;;;;;7.09;45.39;98008.66;7039747;28;20369;-87
2023/03/11 07:14:22;;;;;;;10.93;6.17;;;;;;;6.68;45.55;97947.16;7045785;28;20216;-85
2023/03/11 07:17:43;;;;;;;11.20;4.10;;;;;;;7.53;44.44;97999.03;7043192;28;20216;-88
2023/03/11 07:24:46;;;;;;;8.50;3.40;;;;;;;7.08;43.52;97943.50;7044084;28;20205;-87
2023/03/11 07:28:08;;;;;;;4.17;3.03;;;;;;;7.72;43.68;98025.03;7053867;28;20196;-83
2023/03/11 07:31:31;;;;;;;6.17;3.53;;;;;;;8.12;42.94;98031.22;7044104;28;20227;-80
2023/03/11 07:34:53;;;;;;;4.80;3.10;;;;;;;8.19;42.30;98024.81;7033655;28;20292;-79
2023/03/11 07:38:15;;;;;;;8.33;3.67;;;;;;;8.45;41.39;98021.28;7033885;28;20294;-79
2023/03/11 07:41:38;;;;;;;7.13;3.20;;;;;;;8.41;41.85;98025.41;7031716;28;20302;-79
2023/03/11 07:44:59;;;;;;;7.20;5.90;;;;;;;8.49;40.99;98026.00;7056490;28;20631;-80
2023/03/11 07:48:21;;;;;;;6.63;3.13;;;;;;;8.97;40.46;98032.69;7060045;28;20207;-79
2023/03/11 07:51:43;;;;;;;4.20;3.17;;;;;;;8.91;39.35;98049.63;7058163;28;20314;-80
2023/03/11 07:55:05;;;;;;;6.60;2.73;;;;;;;9.94;38.19;98042.00;7058590;28;20228;-80
2023/03/11 07:58:28;;;;;;;6.50;3.00;;;;;;;9.61;38.11;98006.41;7058993;28;20295;-80
2023/03/11 08:01:50;;;;;;;4.23;3.03;;;;;;;9.21;38.72;98027.38;7057531;28;20297;-80
2023/03/11 08:05:12;;;;;;;3.77;2.30;;;;;;;9.65;39.11;98045.31;7044666;28;20205;-79
2023/03/11 08:08:33;;;;;;;5.23;2.77;;;;;;;8.56;40.26;98058.25;7052851;28;20261;-79
2023/03/11 08:11:55;;;;;;;5.60;2.80;;;;;;;9.49;39.55;98057.44;7042137;28;20709;-80
2023/03/11 08:15:18;;;;;;;5.10;2.77;;;;;;;10.30;37.57;98047.50;7044695;28;20287;-79
2023/03/11 08:18:39;;;;;;;4.17;2.43;;;;;;;9.67;37.67;98060.19;7057414;28;20311;-81
2023/03/11 08:22:01;;;;;;;4.00;2.80;;;;;;;8.89;38.71;98062.47;7058494;28;20256;-80
2023/03/11 08:25:23;;;;;;;5.07;2.53;;;;;;;8.11;39.25;97991.97;7058763;28;20200;-81
2023/03/11 08:28:45;;;;;;;5.17;2.80;;;;;;;9.49;38.08;98070.03;7055378;28;20838;-79
2023/03/11 08:32:08;;;;;;;4.73;2.53;;;;;;;8.87;39.37;98088.75;7033688;28;20334;-79
2023/03/11 08:35:29;;;;;;;4.73;2.60;;;;;;;8.95;39.33;98080.44;7048390;28;20654;-80
2023/03/11 08:38:51;;;;;;;6.20;2.90;;;;;;;8.49;40.42;98093.16;7059234;28;20295;-80
2023/03/11 08:42:13;;;;;;;3.90;2.70;;;;;;;9.12;39.28;98081.63;7058963;28;20269;-80
2023/03/11 08:45:34;;;;;;;7.03;3.37;;;;;;;8.97;38.83;98096.38;7059306;28;20252;-80
2023/03/11 08:48:57;;;;;;;3.43;2.40;;;;;;;8.55;39.06;98086.94;7059925;28;20238;-80
2023/03/11 08:52:19;;;;;;;5.47;2.50;;;;;;;8.25;39.93;98077.69;7056120;28;20327;-81
2023/03/11 08:55:40;;;;;;;7.73;2.70;;;;;;;8.31;40.29;98109.09;7057662;28;20349;-81
2023/03/11 08:59:02;;;;;;;5.60;2.70;;;;;;;8.30;40.10;98091.34;7056901;28;20330;-80
2023/03/11 09:02:24;;;;;;;4.10;2.60;;;;;;;9.19;38.94;98106.63;7057533;28;20373;-80
2023/03/11 09:05:46;;;;;;;4.30;2.40;;;;;;;10.04;37.13;98091.63;7059066;28;20205;-80
2023/03/11 09:09:09;;;;;;;4.97;2.83;;;;;;;9.64;37.99;98092.13;7061033;28;20353;-80
2023/03/11 09:12:30;;;;;;;5.90;2.83;;;;;;;10.07;36.78;98083.13;7058842;28;20449;-80
2023/03/11 09:15:52;;;;;;;6.43;2.43;;;;;;;11.03;36.84;98105.84;7058624;28;20684;-79
2023/03/11 09:19:13;;;;;;;3.03;2.20;;;;;;;10.71;35.32;98102.47;7058100;28;20212;-80
2023/03/11 09:22:36;;;;;;;4.43;2.23;;;;;;;9.11;36.99;98109.56;7039290;28;20311;-80
2023/03/11 09:25:58;;;;;;;6.27;2.40;;;;;;;8.43;38.59;98094.00;7033111;28;20260;-80
2023/03/11 09:29:19;;;;;;;6.57;2.40;;;;;;;9.54;38.19;98110.59;7029102;28;20225;-79
2023/03/11 09:32:41;;;;;;;4.40;2.93;;;;;;;9.30;38.69;98105.94;7029439;28;20228;-81
2023/03/11 09:36:04;;;;;;;5.60;2.60;;;;;;;10.25;37.01;98112.81;7028385;28;20197;-79
2023/03/11 09:39:27;;;;;;;4.50;3.00;;;;;;;9.75;37.39;98107.56;7050307;28;20312;-80
2023/03/11 09:42:57;;;;;;;5.73;2.43;;;;;;;9.82;37.65;98121.81;7063291;28;20292;-80
2023/03/11 09:46:46;;;;;;;3.97;2.63;;;;;;;9.86;38.06;98125.72;7068214;28;20269;-82
2023/03/11 09:50:16;;;;;;;3.90;2.60;;;;;;;9.73;37.53;98115.03;7060255;28;20300;-81
2023/03/11 09:53:41;;;;;;;3.30;2.47;;;;;;;9.71;37.30;98109.03;7059259;28;20218;-81
2023/03/11 09:57:04;;;;;;;5.07;2.47;;;;;;;10.07;37.01;98110.06;7064580;28;20670;-80
2023/03/11 10:00:26;;;;;;;4.13;2.20;;;;;;;10.36;35.35;98122.06;7062507;28;20247;-81
2023/03/11 10:03:47;;;;;;;5.33;2.23;;;;;;;10.36;35.12;98098.66;7063636;28;20686;-85
2023/03/11 10:07:13;;;;;;;2.87;2.30;;;;;;;10.68;34.88;98100.19;7060715;28;20344;-82
2023/03/11 10:10:39;;;;;;;3.60;2.77;;;;;;;10.17;36.34;98114.97;7060223;28;20365;-81
2023/03/11 10:14:09;;;;;;;4.23;2.43;;;;;;;10.04;36.66;98115.06;7062481;28;20231;-81
2023/03/11 10:17:44;;;;;;;7.17;2.80;;;;;;;9.52;36.77;98118.88;7078169;28;20257;-84
2023/03/11 10:21:11;;;;;;;5.93;2.60;;;;;;;8.76;37.71;98124.34;7087347;28;20217;-84
2023/03/11 10:24:42;;;;;;;4.40;2.50;;;;;;;8.74;37.71;98121.03;7088386;28;20234;-84
2023/03/11 10:28:07;;;;;;;3.03;2.47;;;;;;;8.82;37.10;98122.66;7066645;28;20238;-86
2023/03/11 10:31:34;;;;;;;3.47;2.20;;;;;;;9.13;36.17;98121.75;7058377;28;20232;-84
2023/03/11 10:34:59;;;;;;;2.57;2.30;;;;;;;8.65;36.53;98099.94;7044695;28;20254;-84
2023/03/11 10:38:22;;;;;;;6.33;3.13;;;;;;;9.58;35.25;98099.16;7034636;28;20558;-85
2023/03/11 10:41:47;;;;;;;4.83;2.63;;;;;;;10.36;33.88;98095.13;7033140;28;20324;-87
2023/03/11 10:45:12;;;;;;;2.13;1.97;;;;;;;10.63;33.17;98118.09;7034377;28;20640;-82
2023/03/11 10:48:35;;;;;;;6.67;2.40;;;;;;;9.33;37.02;98113.59;7035357;28;20275;-84
2023/03/11 10:51:58;;;;;;;3.70;2.23;;;;;;;9.27;36.98;98117.94;7034446;28;20232;-83
2023/03/11 10:55:20;;;;;;;6.23;2.60;;;;;;;9.07;37.11;98112.88;7035110;28;20303;-83
2023/03/11 10:58:48;;;;;;;7.37;2.77;;;;;;;9.05;37.17;98113.91;7034867;28;20300;-82
2023/03/11 11:02:24;;;;;;;7.27;2.73;;;;;;;8.83;38.02;98113.59;7034414;28;20307;-82
2023/03/11 11:05:57;;;;;;;5.67;2.60;;;;;;;8.97;37.18;98121.41;7035372;28;20208;-83
2023/03/11 11:09:21;;;;;;;9.07;2.53;;;;;;;8.88;36.90;98121.81;7034774;28;20188;-82
2023/03/11 11:12:54;;;;;;;5.30;3.10;;;;;;;8.92;37.00;98126.56;7031366;28;20775;-86
2023/03/11 11:16:19;;;;;;;5.60;2.57;;;;;;;9.75;35.62;98129.91;7047557;28;20201;-85
2023/03/11 11:19:44;;;;;;;5.77;2.80;;;;;;;9.24;37.06;98129.16;7062297;28;20235;-85
2023/03/11 11:23:25;;;;;;;5.90;3.40;;;;;;;10.26;35.79;98135.19;7061485;28;20746;-86
2023/03/11 11:27:04;;;;;;;3.20;2.10;;;;;;;11.11;34.17;98129.81;7059940;28;20412;-84
2023/03/11 11:30:27;;;;;;;3.93;2.40;;;;;;;11.04;33.84;98118.28;7059777;28;20252;-84
2023/03/11 11:33:50;;;;;;;2.40;2.20;;;;;;;11.43;32.65;98128.59;7061772;28;20236;-84
2023/03/11 11:37:13;;;;;;;2.87;2.20;;;;;;;11.80;32.78;98127.53;7061640;28;20822;-82
2023/03/11 11:40:36;;;;;;;3.83;2.10;;;;;;;12.39;32.59;98127.44;7060934;28;20239;-83
2023/03/11 11:44:00;;;;;;;5.37;2.47;;;;;;;12.48;31.26;98112.50;7060332;28;20279;-84
2023/03/11 11:47:24;;;;;;;6.07;2.50;;;;;;;12.95;30.84;98101.50;7060641;28;20280;-82
2023/03/11 11:50:48;;;;;;;3.90;2.23;;;;;;;13.80;29.29;98092.41;7069222;28;20254;-82
2023/03/11 11:54:16;;;;;;;6.07;2.40;;;;;;;12.78;31.25;98110.53;7060257;28;20295;-82
2023/03/11 11:57:39;;;;;;;2.50;2.20;;;;;;;12.53;31.03;98109.94;7085347;27;20656;-82
2023/03/11 12:01:14;;;;;;;4.97;2.50;;;;;;;13.01;29.97;98089.72;7060360;28;20851;-84
2023/03/11 12:04:48;;;;;;;3.03;2.00;;;;;;;12.54;29.93;98092.66;7060730;28;20288;-84
2023/03/11 12:08:15;;;;;;;2.67;2.27;;;;;;;12.09;30.16;98075.34;7060813;28;20292;-84
2023/03/11 12:11:39;;;;;;;7.20;2.47;;;;;;;11.77;29.03;98085.59;7059501;28;20323;-82
2023/03/11 12:15:07;;;;;;;2.60;2.13;;;;;;;10.43;30.74;98093.19;7059300;28;20208;-82
2023/03/11 12:18:34;;;;;;;3.33;2.30;;;;;;;10.23;32.28;98074.53;7058276;28;20264;-82
2023/03/11 12:22:21;;;;;;;2.23;2.00;;;;;;;10.53;32.47;98074.63;7057893;28;20228;-83
2023/03/11 12:25:52;;;;;;;3.13;2.33;;;;;;;10.98;33.10;98081.44;7058597;28;20241;-82
2023/03/11 12:29:20;;;;;;;5.27;2.50;;;;;;;10.99;32.55;98081.19;7057933;28;20218;-82
2023/03/11 12:32:44;;;;;;;4.23;2.10;;;;;;;10.66;32.37;98061.84;7055689;28;20879;-81
2023/03/11 12:36:09;;;;;;;5.87;2.50;;;;;;;10.43;32.99;98077.84;7056276;28;20208;-82
2023/03/11 12:39:32;;;;;;;3.80;3.30;;;;;;;10.26;33.94;98073.22;7055171;28;20204;-82
2023/03/11 12:42:54;;;;;;;3.80;2.50;;;;;;;9.97;33.07;98073.84;7039795;28;20311;-80
2023/03/11 12:46:17;;;;;;;3.87;2.60;;;;;;;10.22;32.94;98063.97;7044451;28;20196;-81
2023/03/11 12:49:42;;;;;;;2.40;2.17;;;;;;;10.92;33.00;98066.13;7054713;28;20553;-81
2023/03/11 12:53:03;;;;;;;7.70;2.43;;;;;;;11.10;31.08;98074.22;7054083;28;20228;-79
2023/03/11 12:56:30;;;;;;;3.50;2.20;;;;;;;11.71;30.74;98059.50;7058858;28;20210;-81
2023/03/11 13:00:21;;;;;;;2.40;2.20;;;;;;;11.96;29.64;98073.66;7057382;28;20191;-81
2023/03/11 13:03:51;;;;;;;3.77;2.33;;;;;;;11.17;30.19;98067.66;7053645;28;20204;-81
2023/03/11 13:07:47;;;;;;;2.30;2.10;;;;;;;11.28;30.98;98066.91;7060337;28;20633;-80
2023/03/11 13:11:28;;;;;;;3.10;2.30;;;;;;;12.56;28.27;98061.63;7050632;28;20357;-82
2023/03/11 13:15:24;;;;;;;3.60;2.40;;;;;;;12.08;29.66;98062.88;7056024;28;20337;-82
2023/03/11 13:18:47;;;;;;;2.50;2.10;;;;;;;12.14;28.98;98032.22;7058692;28;20735;-82
2023/03/11 13:22:59;;;;;;;4.53;2.40;;;;;;;11.54;30.08;98061.19;7058597;28;20216;-82
2023/03/11 13:26:40;;;;;;;2.40;2.20;;;;;;;10.57;31.50;98073.97;7039271;28;20282;-80
2023/03/11 13:30:09;;;;;;;3.43;2.23;;;;;;;10.96;30.75;98054.66;7054881;28;20226;-80
2023/03/11 13:33:41;;;;;;;5.00;2.00;;;;;;;11.51;29.90;98067.03;7057618;28;20224;-80
2023/03/11 13:37:16;;;;;;;5.10;2.63;;;;;;;10.99;29.86;98053.41;7060022;28;20200;-80
2023/03/11 13:40:39;;;;;;;2.93;2.33;;;;;;;11.71;29.56;98070.31;7057592;28;20605;-80
2023/03/11 13:44:10;;;;;;;6.53;2.40;;;;;;;11.15;30.08;98077.06;7057607;28;20297;-81
2023/03/11 13:47:33;;;;;;;3.10;2.27;;;;;;;11.25;30.79;98078.19;7033244;28;20349;-80
2023/03/11 13:50:59;;;;;;;2.40;2.10;;;;;;;11.81;30.74;98062.47;7031224;28;20314;-80
2023/03/11 13:54:32;;;;;;;2.40;2.20;;;;;;;11.52;30.31;98030.88;7031337;28;20302;-80
2023/03/11 13:57:55;;;;;;;2.50;2.30;;;;;;;11.87;29.68;98055.31;7031501;28;20687;-80
2023/03/11 14:01:18;;;;;;;3.13;2.30;;;;;;;11.20;30.24;98061.00;7031198;28;20216;-80
2023/03/11 14:04:42;;;;;;;3.37;2.30;;;;;;;11.08;30.49;98071.75;7031447;28;20295;-81
2023/03/11 14:08:13;;;;;;;3.40;2.20;;;;;;;10.68;31.73;98085.91;7034722;28;20220;-80
2023/03/11 14:11:34;;;;;;;4.40;2.37;;;;;;;11.50;30.59;98072.63;7027386;28;20227;-79
2023/03/11 14:14:59;;;;;;;5.10;2.07;;;;;;;12.27;29.37;98059.03;7028280;28;20205;-79
2023/03/11 14:18:36;;;;;;;3.30;2.20;;;;;;;11.32;30.35;98057.31;7028374;28;20205;-79
2023/03/11 14:21:58;;;;;;;2.80;2.20;;;;;;;12.22;29.67;98070.53;7049449;28;20227;-80
2023/03/11 14:25:22;;;;;;;3.70;2.37;;;;;;;11.20;30.27;98069.94;7056425;28;20200;-79
2023/03/11 14:28:46;;;;;;;3.07;2.53;;;;;;;11.22;29.86;98075.09;7056032;28;20287;-79
2023/03/11 14:32:23;;;;;;;4.50;2.33;;;;;;;11.57;30.06;98051.81;7052900;28;20273;-79
2023/03/11 14:35:53;;;;;;;2.43;2.17;;;;;;;12.52;28.33;98078.56;7054839;28;20253;-80
2023/03/11 14:39:26;;;;;;;4.27;2.30;;;;;;;11.77;30.25;98057.75;7057719;28;20315;-81
2023/03/11 14:42:52;;;;;;;3.93;2.23;;;;;;;11.41;29.73;98066.75;7056420;28;20216;-80
2023/03/11 14:46:19;;;;;;;2.70;2.10;;;;;;;11.00;31.16;98068.53;7054566;28;20199;-80
2023/03/11 14:49:41;;;;;;;4.20;2.10;;;;;;;11.22;30.58;98070.53;7056700;28;20194;-81
2023/03/11 14:53:07;;;;;;;4.30;2.17;;;;;;;10.85;30.89;98055.41;7058427;28;20732;-81
2023/03/11 14:56:31;;;;;;;4.17;2.37;;;;;;;11.18;29.67;98055.84;7046406;28;20211;-83
2023/03/11 14:59:53;;;;;;;4.03;2.40;;;;;;;11.54;29.85;98041.44;7030524;28;20201;-81
2023/03/11 15:03:22;;;;;;;4.00;2.13;;;;;;;11.36;29.90;98063.09;7030295;28;20348;-81
2023/03/11 15:06:44;;;;;;;3.33;2.37;;;;;;;11.18;30.26;98061.25;7029821;28;20191;-81
2023/03/11 15:10:12;;;;;;;2.97;2.30;;;;;;;10.67;31.60;98071.59;7030137;28;20389;-81
2023/03/11 15:13:34;;;;;;;2.33;2.13;;;;;;;11.24;30.51;98071.13;7031239;28;20274;-80
2023/03/11 15:17:08;;;;;;;6.07;2.83;;;;;;;10.57;31.02;98065.06;7030331;28;20209;-83
2023/03/11 15:20:31;;;;;;;4.17;2.40;;;;;;;11.37;30.80;98070.13;7030047;28;20277;-81
2023/03/11 15:23:59;;;;;;;3.37;2.23;;;;;;;10.62;30.96;98049.88;7029917;28;20209;-81
2023/03/11 15:27:30;;;;;;;4.43;2.43;;;;;;;10.94;31.50;98069.44;7030177;28;20243;-81
2023/03/11 15:31:15;;;;;;;3.40;2.63;;;;;;;10.68;31.70;98078.63;7028846;28;20315;-81
2023/03/11 15:34:37;;;;;;;4.23;2.60;;;;;;;10.81;31.66;98086.56;7030189;28;20241;-82
2023/03/11 15:38:13;;;;;;;4.53;2.70;;;;;;;10.86;30.98;98019.31;7030511;28;20739;-81
2023/03/11 15:41:34;;;;;;;3.50;2.30;;;;;;;11.30;31.24;98101.78;7030850;28;20270;-83
2023/03/11 15:45:13;;;;;;;2.57;2.37;;;;;;;10.65;31.95;98108.75;7057104;28;20283;-84
2023/03/11 15:48:35;;;;;;;3.77;2.40;;;;;;;10.52;31.94;98102.66;7054141;28;20299;-83
2023/03/11 15:52:00;;;;;;;4.53;2.40;;;;;;;10.76;31.74;98099.91;7056836;28;20324;-84
2023/03/11 15:55:22;;;;;;;5.43;2.43;;;;;;;10.73;32.08;98091.44;7058411;28;20224;-83
2023/03/11 15:58:46;;;;;;;2.97;2.37;;;;;;;10.55;32.01;98108.41;7058368;28;20204;-83
2023/03/11 16:02:15;;;;;;;4.90;2.90;;;;;;;10.62;31.75;98079.53;7056121;28;20311;-83
2023/03/11 16:05:37;;;;;;;2.30;2.10;;;;;;;11.09;31.54;98113.84;7056949;28;20333;-83
2023/03/11 16:08:58;;;;;;;4.07;2.40;;;;;;;10.41;32.36;98106.91;7057590;28;20807;-82
2023/03/11 16:12:23;;;;;;;6.20;2.97;;;;;;;11.01;32.84;98124.13;7055215;28;20232;-82
2023/03/11 16:15:45;;;;;;;4.40;2.13;;;;;;;10.75;32.95;98129.78;7057183;28;20606;-84
2023/03/11 16:19:08;;;;;;;4.33;2.70;;;;;;;10.49;33.38;98119.25;7061597;28;20302;-83
2023/03/11 16:22:33;;;;;;;3.00;2.60;;;;;;;10.18;33.19;98127.38;7071003;28;20231;-83
2023/03/11 16:25:57;;;;;;;3.10;2.47;;;;;;;10.22;33.84;98107.06;7059816;28;20215;-86
2023/03/11 16:29:22;;;;;;;5.23;3.33;;;;;;;10.56;33.42;98106.56;7058382;28;20233;-82
2023/03/11 16:32:44;;;;;;;3.03;2.63;;;;;;;10.40;33.36;98118.69;7058473;28;20224;-84
2023/03/11 16:36:07;;;;;;;4.77;2.70;;;;;;;10.30;33.46;98125.63;7058903;28;20233;-82
2023/03/11 16:39:29;;;;;;;2.67;2.47;;;;;;;10.10;34.15;98114.19;7058819;28;20216;-82
2023/03/11 16:42:50;;;;;;;4.90;3.00;;;;;;;10.30;34.08;98129.16;7037337;28;20233;-83
2023/03/11 16:46:12;;;;;;;3.37;2.40;;;;;;;9.96;33.76;98117.97;7029985;28;20232;-83
2023/03/11 16:49:33;;;;;;;3.23;2.57;;;;;;;10.21;33.20;98135.84;7028047;28;20237;-82
2023/03/11 16:52:57;;;;;;;11.53;4.90;;;;;;;10.39;35.09;98144.00;7028753;28;20824;-81
2023/03/11 16:56:18;;;;;;;4.10;2.80;;;;;;;10.40;32.78;98152.91;7033057;28;20291;-83
2023/03/11 16:59:40;;;;;;;5.23;2.33;;;;;;;9.67;34.17;98149.03;7029749;28;20286;-83
2023/03/11 17:03:02;;;;;;;2.47;2.33;;;;;;;10.18;33.87;98138.16;7029383;28;20324;-83
2023/03/11 17:06:24;;;;;;;4.83;2.80;;;;;;;9.98;33.64;98167.06;7030183;28;20205;-82
2023/03/11 17:09:46;;;;;;;6.37;2.87;;;;;;;9.69;34.67;98171.16;7029616;28;20209;-80
2023/03/11 17:13:18;;;;;;;7.63;3.10;;;;;;;9.41;35.05;98169.84;7031636;28;20256;-86
2023/03/11 17:16:39;;;;;;;4.70;2.53;;;;;;;9.56;35.35;98179.28;7032154;28;20181;-84
2023/03/11 17:20:01;;;;;;;4.10;2.60;;;;;;;9.75;34.54;98103.00;7033185;28;20204;-84
2023/03/11 17:23:23;;;;;;;4.90;3.20;;;;;;;10.15;34.28;98179.81;7034691;28;20707;-84
2023/03/11 17:26:46;;;;;;;10.63;6.50;;;;;;;9.92;34.34;98190.28;7042429;28;20208;-84
2023/03/11 17:30:09;;;;;;;4.37;3.20;;;;;;;9.70;34.77;98177.38;7058116;28;20263;-83
2023/03/11 17:33:30;;;;;;;3.37;3.07;;;;;;;9.68;34.95;98201.00;7059588;28;20252;-83
2023/03/11 17:36:51;;;;;;;5.00;2.87;;;;;;;9.49;35.08;98215.34;7051552;28;20337;-84
2023/03/11 17:40:13;;;;;;;6.33;3.10;;;;;;;9.56;35.09;98213.47;7058817;28;20721;-83
2023/03/11 17:43:36;;;;;;;3.33;2.70;;;;;;;9.16;35.40;98158.94;7057975;28;20260;-83
2023/03/11 17:46:58;;;;;;;4.37;3.07;;;;;;;9.14;35.53;98230.97;7057697;28;20251;-85
2023/03/11 17:50:19;;;;;;;6.27;3.63;;;;;;;9.61;35.04;98241.38;7058183;28;20223;-84
2023/03/11 17:53:42;;;;;;;8.63;4.53;;;;;;;9.61;35.04;98227.09;7058942;28;20321;-83
2023/03/11 17:57:04;;;;;;;5.63;3.63;;;;;;;9.76;34.56;98235.72;7068179;28;20200;-84
2023/03/11 18:00:27;;;;;;;5.77;4.20;;;;;;;9.60;35.16;98253.19;7051813;28;20289;-81
2023/03/11 18:03:48;;;;;;;12.93;4.47;;;;;;;9.34;35.32;98247.06;7060157;28;20708;-83
2023/03/11 18:07:10;;;;;;;6.53;4.17;;;;;;;9.78;35.12;98212.94;7072452;28;20210;-85
2023/03/11 18:10:32;;;;;;;4.33;3.90;;;;;;;9.67;35.19;98189.41;7060774;28;20297;-85
2023/03/11 18:18:26;;;;;;;3.57;3.00;;;;;;;9.17;36.17;98264.69;7057957;28;20238;-87
2023/03/11 18:21:58;;;;;;;3.90;3.30;;;;;;;9.05;36.84;98272.53;7057356;28;20228;-85